Terminal Aerodrome Forecast
Issued by NWS St Louis, MO

Home | Current Version | Previous Version | Text Only | Print | Product List | Glossary On
Versions: 1 2 3 4 5 6 7 8 9 10 11 12 13 14 15 16 17 18 19 20 21 22 23 24 25 26 27 28 29 30 31 32
073
FTUS43 KLSX 200857 AAA
TAFSTL
TAF AMD
KSTL 200857Z 2009/2112 19013G23KT P6SM -SHRA OVC050
     FM201500 19014G24KT 6SM -SHRA OVC025
     FM202200 22013G21KT 4SM -SHRA OVC015
     FM210200 29014G22KT 3SM -SHRA OVC008
     FM210600 33014G24KT 4SM -RA OVC010=

USA.gov is the U.S. government's official web portal to all federal, state and local government web resources and services.